sensor_id;sensor_type;location;lat;lon;timestamp;pressure;altitude;pressure_sealevel;temperature;humidity
71666;BME280;59503;53.486;10.196;2022-08-21T00:00:25;101664.44;;;11.97;100.00
71666;BME280;59503;53.486;10.196;2022-08-21T00:02:59;101664.88;;;11.99;100.00
71666;BME280;59503;53.486;10.196;2022-08-21T00:05:26;101667.16;;;11.97;100.00
71666;BME280;59503;53.486;10.196;2022-08-21T00:07:53;101671.81;;;11.96;100.00
71666;BME280;59503;53.486;10.196;2022-08-21T00:10:19;101659.94;;;11.89;100.00
71666;BME280;59503;53.486;10.196;2022-08-21T00:12:45;101655.28;;;11.89;100.00
71666;BME280;59503;53.486;10.196;2022-08-21T00:15:17;101666.34;;;11.96;100.00
71666;BME280;59503;53.486;10.196;2022-08-21T00:17:43;101659.31;;;11.95;100.00
71666;BME280;59503;53.486;10.196;2022-08-21T00:20:14;101657.31;;;11.92;100.00
71666;BME280;59503;53.486;10.196;2022-08-21T00:22:40;101652.63;;;11.93;100.00
71666;BME280;59503;53.486;10.196;2022-08-21T00:25:07;101654.94;;;11.91;100.00
71666;BME280;59503;53.486;10.196;2022-08-21T00:27:33;101644.97;;;11.83;100.00
71666;BME280;59503;53.486;10.196;2022-08-21T00:29:58;101647.69;;;11.83;100.00
71666;BME280;59503;53.486;10.196;2022-08-21T00:32:26;101641.00;;;11.80;100.00
71666;BME280;59503;53.486;10.196;2022-08-21T00:34:52;101645.22;;;11.78;100.00
71666;BME280;59503;53.486;10.196;2022-08-21T00:37:18;101647.16;;;11.77;100.00
71666;BME280;59503;53.486;10.196;2022-08-21T00:39:43;101648.19;;;11.73;100.00
71666;BME280;59503;53.486;10.196;2022-08-21T00:42:10;101648.53;;;11.71;100.00
71666;BME280;59503;53.486;10.196;2022-08-21T00:44:43;101642.56;;;11.66;100.00
71666;BME280;59503;53.486;10.196;2022-08-21T00:47:10;101651.97;;;11.68;100.00
71666;BME280;59503;53.486;10.196;2022-08-21T00:49:36;101646.41;;;11.65;100.00
71666;BME280;59503;53.486;10.196;2022-08-21T00:52:02;101646.28;;;11.61;100.00
71666;BME280;59503;53.486;10.196;2022-08-21T00:54:29;101646.06;;;11.66;100.00
71666;BME280;59503;53.486;10.196;2022-08-21T00:57:00;101645.16;;;11.62;100.00
71666;BME280;59503;53.486;10.196;2022-08-21T00:59:28;101652.06;;;11.60;100.00
71666;BME280;59503;53.486;10.196;2022-08-21T01:01:55;101643.69;;;11.53;100.00
71666;BME280;59503;53.486;10.196;2022-08-21T01:04:22;101650.41;;;11.55;100.00
71666;BME280;59503;53.486;10.196;2022-08-21T01:06:48;101640.31;;;11.56;100.00
71666;BME280;59503;53.486;10.196;2022-08-21T01:09:14;101639.94;;;11.57;100.00
71666;BME280;59503;53.486;10.196;2022-08-21T01:11:41;101633.03;;;11.48;100.00
71666;BME280;59503;53.486;10.196;2022-08-21T01:14:10;101640.97;;;11.53;100.00
71666;BME280;59503;53.486;10.196;2022-08-21T01:16:38;101646.75;;;11.51;100.00
71666;BME280;59503;53.486;10.196;2022-08-21T01:19:06;101643.94;;;11.48;100.00
71666;BME280;59503;53.486;10.196;2022-08-21T01:21:34;101643.16;;;11.47;100.00
71666;BME280;59503;53.486;10.196;2022-08-21T01:23:59;101647.00;;;11.46;100.00
71666;BME280;59503;53.486;10.196;2022-08-21T01:26:28;101657.78;;;11.43;100.00
71666;BME280;59503;53.486;10.196;2022-08-21T01:29:00;101653.03;;;11.40;100.00
71666;BME280;59503;53.486;10.196;2022-08-21T01:31:28;101640.47;;;11.35;100.00
71666;BME280;59503;53.486;10.196;2022-08-21T01:33:55;101657.59;;;11.36;100.00
71666;BME280;59503;53.486;10.196;2022-08-21T01:36:22;101653.63;;;11.33;100.00
71666;BME280;59503;53.486;10.196;2022-08-21T01:38:47;101648.28;;;11.37;100.00
71666;BME280;59503;53.486;10.196;2022-08-21T01:41:14;101647.38;;;11.32;100.00
71666;BME280;59503;53.486;10.196;2022-08-21T01:43:40;101643.91;;;11.32;100.00
71666;BME280;59503;53.486;10.196;2022-08-21T01:46:06;101642.97;;;11.28;100.00
71666;BME280;59503;53.486;10.196;2022-08-21T01:48:31;101633.84;;;11.20;100.00
71666;BME280;59503;53.486;10.196;2022-08-21T01:50:57;101643.56;;;11.21;100.00
71666;BME280;59503;53.486;10.196;2022-08-21T01:53:22;101633.63;;;11.13;100.00
71666;BME280;59503;53.486;10.196;2022-08-21T01:55:48;101643.22;;;11.23;100.00
71666;BME280;59503;53.486;10.196;2022-08-21T01:58:14;101636.78;;;11.15;100.00
71666;BME280;59503;53.486;10.196;2022-08-21T02:00:39;101632.47;;;11.14;100.00
71666;BME280;59503;53.486;10.196;2022-08-21T02:03:05;101638.81;;;11.18;100.00
71666;BME280;59503;53.486;10.196;2022-08-21T02:05:30;101639.16;;;11.17;100.00
71666;BME280;59503;53.486;10.196;2022-08-21T02:07:56;101640.63;;;11.14;100.00
71666;BME280;59503;53.486;10.196;2022-08-21T02:10:27;101642.38;;;11.07;100.00
71666;BME280;59503;53.486;10.196;2022-08-21T02:12:54;101639.63;;;11.07;100.00
71666;BME280;59503;53.486;10.196;2022-08-21T02:15:20;101644.16;;;11.03;100.00
71666;BME280;59503;53.486;10.196;2022-08-21T02:17:58;101646.78;;;10.99;100.00
71666;BME280;59503;53.486;10.196;2022-08-21T02:20:37;101651.41;;;10.99;100.00
71666;BME280;59503;53.486;10.196;2022-08-21T02:23:04;101637.63;;;10.92;100.00
71666;BME280;59503;53.486;10.196;2022-08-21T02:25:30;101641.56;;;10.94;100.00
71666;BME280;59503;53.486;10.196;2022-08-21T02:27:56;101647.69;;;10.91;100.00
71666;BME280;59503;53.486;10.196;2022-08-21T02:30:29;101646.22;;;10.94;100.00
71666;BME280;59503;53.486;10.196;2022-08-21T02:32:56;101640.00;;;10.93;100.00
71666;BME280;59503;53.486;10.196;2022-08-21T02:35:22;101648.81;;;10.90;100.00
71666;BME280;59503;53.486;10.196;2022-08-21T02:37:52;101628.09;;;10.86;100.00
71666;BME280;59503;53.486;10.196;2022-08-21T02:40:19;101631.63;;;10.86;100.00
71666;BME280;59503;53.486;10.196;2022-08-21T02:42:45;101630.47;;;10.87;100.00
71666;BME280;59503;53.486;10.196;2022-08-21T02:45:12;101638.63;;;10.87;100.00
71666;BME280;59503;53.486;10.196;2022-08-21T02:47:39;101631.63;;;10.86;100.00
71666;BME280;59503;53.486;10.196;2022-08-21T02:50:06;101629.13;;;10.81;100.00
71666;BME280;59503;53.486;10.196;2022-08-21T02:52:31;101625.59;;;10.81;100.00
71666;BME280;59503;53.486;10.196;2022-08-21T02:54:58;101629.81;;;10.78;100.00
71666;BME280;59503;53.486;10.196;2022-08-21T02:57:24;101619.59;;;10.75;100.00
71666;BME280;59503;53.486;10.196;2022-08-21T02:59:50;101617.22;;;10.74;100.00
71666;BME280;59503;53.486;10.196;2022-08-21T03:02:15;101611.44;;;10.75;100.00
71666;BME280;59503;53.486;10.196;2022-08-21T03:04:41;101605.13;;;10.71;100.00
71666;BME280;59503;53.486;10.196;2022-08-21T03:07:07;101614.16;;;10.75;100.00
71666;BME280;59503;53.486;10.196;2022-08-21T03:09:32;101605.56;;;10.73;100.00
71666;BME280;59503;53.486;10.196;2022-08-21T03:11:57;101618.03;;;10.74;100.00
71666;BME280;59503;53.486;10.196;2022-08-21T03:14:23;101617.56;;;10.72;100.00
71666;BME280;59503;53.486;10.196;2022-08-21T03:16:48;101617.09;;;10.70;100.00
71666;BME280;59503;53.486;10.196;2022-08-21T03:19:15;101609.19;;;10.65;100.00
71666;BME280;59503;53.486;10.196;2022-08-21T03:21:40;101608.75;;;10.63;100.00
71666;BME280;59503;53.486;10.196;2022-08-21T03:24:06;101617.44;;;10.69;100.00
71666;BME280;59503;53.486;10.196;2022-08-21T03:26:32;101611.91;;;10.65;100.00
71666;BME280;59503;53.486;10.196;2022-08-21T03:28:57;101612.59;;;10.62;100.00
71666;BME280;59503;53.486;10.196;2022-08-21T03:31:23;101613.72;;;10.61;100.00
71666;BME280;59503;53.486;10.196;2022-08-21T03:33:49;101618.25;;;10.69;100.00
71666;BME280;59503;53.486;10.196;2022-08-21T03:36:15;101618.38;;;10.73;100.00
71666;BME280;59503;53.486;10.196;2022-08-21T03:38:41;101616.88;;;10.75;100.00
71666;BME280;59503;53.486;10.196;2022-08-21T03:41:07;101616.88;;;10.75;100.00
71666;BME280;59503;53.486;10.196;2022-08-21T03:43:32;101613.94;;;10.80;100.00
71666;BME280;59503;53.486;10.196;2022-08-21T03:46:00;101620.03;;;11.01;100.00
71666;BME280;59503;53.486;10.196;2022-08-21T03:48:26;101610.03;;;11.05;100.00
71666;BME280;59503;53.486;10.196;2022-08-21T03:50:52;101612.97;;;11.12;100.00
71666;BME280;59503;53.486;10.196;2022-08-21T03:53:18;101611.97;;;11.17;100.00
71666;BME280;59503;53.486;10.196;2022-08-21T03:55:47;101605.72;;;11.16;100.00
71666;BME280;59503;53.486;10.196;2022-08-21T03:58:16;101615.66;;;11.24;100.00
71666;BME280;59503;53.486;10.196;2022-08-21T04:00:43;101620.16;;;11.32;100.00
71666;BME280;59503;53.486;10.196;2022-08-21T04:03:09;101626.38;;;11.45;100.00
71666;BME280;59503;53.486;10.196;2022-08-21T04:05:34;101621.53;;;11.39;100.00
71666;BME280;59503;53.486;10.196;2022-08-21T04:08:02;101626.94;;;11.51;100.00
71666;BME280;59503;53.486;10.196;2022-08-21T04:10:29;101620.78;;;11.54;100.00
71666;BME280;59503;53.486;10.196;2022-08-21T04:12:55;101623.97;;;11.56;100.00
71666;BME280;59503;53.486;10.196;2022-08-21T04:15:22;101631.69;;;11.54;100.00
71666;BME280;59503;53.486;10.196;2022-08-21T04:17:48;101626.59;;;11.52;100.00
71666;BME280;59503;53.486;10.196;2022-08-21T04:20:14;101630.06;;;11.53;100.00
71666;BME280;59503;53.486;10.196;2022-08-21T04:22:40;101623.66;;;11.45;100.00
71666;BME280;59503;53.486;10.196;2022-08-21T04:25:06;101619.78;;;11.46;100.00
71666;BME280;59503;53.486;10.196;2022-08-21T04:27:33;101624.09;;;11.47;100.00
71666;BME280;59503;53.486;10.196;2022-08-21T04:29:58;101635.72;;;11.60;100.00
71666;BME280;59503;53.486;10.196;2022-08-21T04:32:25;101634.25;;;11.62;100.00
71666;BME280;59503;53.486;10.196;2022-08-21T04:35:00;101631.22;;;11.64;100.00
71666;BME280;59503;53.486;10.196;2022-08-21T04:37:26;101633.25;;;11.67;100.00
71666;BME280;59503;53.486;10.196;2022-08-21T04:39:51;101627.22;;;11.61;100.00
71666;BME280;59503;53.486;10.196;2022-08-21T04:42:17;101632.44;;;11.66;100.00
71666;BME280;59503;53.486;10.196;2022-08-21T04:44:43;101633.59;;;11.65;100.00
71666;BME280;59503;53.486;10.196;2022-08-21T04:47:08;101625.06;;;11.67;100.00
71666;BME280;59503;53.486;10.196;2022-08-21T04:49:33;101629.81;;;11.70;100.00
71666;BME280;59503;53.486;10.196;2022-08-21T04:52:00;101637.03;;;11.78;100.00
71666;BME280;59503;53.486;10.196;2022-08-21T04:54:26;101633.75;;;11.84;100.00
71666;BME280;59503;53.486;10.196;2022-08-21T04:56:54;101643.78;;;11.96;100.00
71666;BME280;59503;53.486;10.196;2022-08-21T04:59:28;101652.47;;;12.01;100.00
71666;BME280;59503;53.486;10.196;2022-08-21T05:01:55;101647.56;;;12.07;100.00
71666;BME280;59503;53.486;10.196;2022-08-21T05:04:25;101655.13;;;12.13;100.00
71666;BME280;59503;53.486;10.196;2022-08-21T05:06:53;101652.59;;;12.20;100.00
71666;BME280;59503;53.486;10.196;2022-08-21T05:09:20;101658.59;;;12.26;100.00
71666;BME280;59503;53.486;10.196;2022-08-21T05:11:46;101659.66;;;12.37;100.00
71666;BME280;59503;53.486;10.196;2022-08-21T05:14:12;101659.47;;;12.45;100.00
71666;BME280;59503;53.486;10.196;2022-08-21T05:16:38;101656.22;;;12.56;100.00
71666;BME280;59503;53.486;10.196;2022-08-21T05:19:05;101658.75;;;12.64;100.00
71666;BME280;59503;53.486;10.196;2022-08-21T05:21:31;101657.00;;;12.72;100.00
71666;BME280;59503;53.486;10.196;2022-08-21T05:23:56;101656.66;;;12.73;100.00
71666;BME280;59503;53.486;10.196;2022-08-21T05:26:21;101660.41;;;12.84;100.00
71666;BME280;59503;53.486;10.196;2022-08-21T05:28:47;101665.16;;;12.87;100.00
71666;BME280;59503;53.486;10.196;2022-08-21T05:31:12;101657.78;;;12.88;100.00
71666;BME280;59503;53.486;10.196;2022-08-21T05:33:38;101665.16;;;12.87;100.00
71666;BME280;59503;53.486;10.196;2022-08-21T05:36:03;101664.81;;;12.89;100.00
71666;BME280;59503;53.486;10.196;2022-08-21T05:38:29;101662.69;;;12.98;100.00
71666;BME280;59503;53.486;10.196;2022-08-21T05:40:54;101664.22;;;12.95;100.00
71666;BME280;59503;53.486;10.196;2022-08-21T05:43:20;101664.91;;;13.08;100.00
71666;BME280;59503;53.486;10.196;2022-08-21T05:45:46;101665.50;;;13.17;100.00
71666;BME280;59503;53.486;10.196;2022-08-21T05:48:14;101662.69;;;13.32;99.66
71666;BME280;59503;53.486;10.196;2022-08-21T05:50:41;101664.59;;;13.47;98.90
71666;BME280;59503;53.486;10.196;2022-08-21T05:53:07;101657.06;;;13.60;97.75
71666;BME280;59503;53.486;10.196;2022-08-21T05:55:35;101655.31;;;13.71;96.80
71666;BME280;59503;53.486;10.196;2022-08-21T05:58:02;101651.81;;;13.70;95.56
71666;BME280;59503;53.486;10.196;2022-08-21T06:00:28;101647.19;;;13.74;95.81
71666;BME280;59503;53.486;10.196;2022-08-21T06:02:53;101658.41;;;13.89;95.83
71666;BME280;59503;53.486;10.196;2022-08-21T06:05:19;101652.78;;;14.01;95.81
71666;BME280;59503;53.486;10.196;2022-08-21T06:07:44;101652.78;;;14.01;95.07
71666;BME280;59503;53.486;10.196;2022-08-21T06:10:10;101660.19;;;14.00;94.79
71666;BME280;59503;53.486;10.196;2022-08-21T06:12:36;101654.78;;;14.04;94.74
71666;BME280;59503;53.486;10.196;2022-08-21T06:15:02;101663.56;;;14.13;94.35
71666;BME280;59503;53.486;10.196;2022-08-21T06:17:28;101655.06;;;14.18;94.30
71666;BME280;59503;53.486;10.196;2022-08-21T06:19:54;101659.97;;;14.28;94.10
71666;BME280;59503;53.486;10.196;2022-08-21T06:22:20;101649.06;;;14.31;93.51
71666;BME280;59503;53.486;10.196;2022-08-21T06:24:46;101653.50;;;14.39;93.44
71666;BME280;59503;53.486;10.196;2022-08-21T06:27:11;101655.44;;;14.39;93.19
71666;BME280;59503;53.486;10.196;2022-08-21T06:29:37;101659.50;;;14.48;93.16
71666;BME280;59503;53.486;10.196;2022-08-21T06:32:04;101654.22;;;14.59;92.38
71666;BME280;59503;53.486;10.196;2022-08-21T06:34:36;101665.41;;;14.73;91.86
71666;BME280;59503;53.486;10.196;2022-08-21T06:37:03;101664.66;;;14.76;92.04
71666;BME280;59503;53.486;10.196;2022-08-21T06:39:28;101661.34;;;14.89;91.23
71666;BME280;59503;53.486;10.196;2022-08-21T06:41:54;101661.53;;;15.00;91.30
71666;BME280;59503;53.486;10.196;2022-08-21T06:44:20;101669.56;;;15.16;90.46
71666;BME280;59503;53.486;10.196;2022-08-21T06:46:46;101667.81;;;15.30;89.17
71666;BME280;59503;53.486;10.196;2022-08-21T06:49:12;101666.59;;;15.54;89.54
71666;BME280;59503;53.486;10.196;2022-08-21T06:51:38;101665.56;;;15.65;87.80
71666;BME280;59503;53.486;10.196;2022-08-21T06:54:04;101662.72;;;15.91;87.05
71666;BME280;59503;53.486;10.196;2022-08-21T06:56:29;101664.41;;;16.03;85.30
71666;BME280;59503;53.486;10.196;2022-08-21T06:58:55;101657.31;;;15.98;83.78
71666;BME280;59503;53.486;10.196;2022-08-21T07:01:24;101660.97;;;16.13;83.21
71666;BME280;59503;53.486;10.196;2022-08-21T07:03:49;101664.19;;;16.18;83.74
71666;BME280;59503;53.486;10.196;2022-08-21T07:06:15;101659.81;;;16.51;83.12
71666;BME280;59503;53.486;10.196;2022-08-21T07:08:40;101649.66;;;16.55;81.13
71666;BME280;59503;53.486;10.196;2022-08-21T07:11:20;101653.38;;;16.80;80.59
71666;BME280;59503;53.486;10.196;2022-08-21T07:13:46;101644.81;;;16.88;79.67
71666;BME280;59503;53.486;10.196;2022-08-21T07:16:12;101638.31;;;17.21;79.10
71666;BME280;59503;53.486;10.196;2022-08-21T07:18:37;101638.81;;;17.37;77.93
71666;BME280;59503;53.486;10.196;2022-08-21T07:21:05;101629.09;;;17.57;77.52
71666;BME280;59503;53.486;10.196;2022-08-21T07:23:37;101639.38;;;17.81;76.33
71666;BME280;59503;53.486;10.196;2022-08-21T07:26:05;101629.97;;;17.82;76.05
71666;BME280;59503;53.486;10.196;2022-08-21T07:28:30;101631.22;;;18.09;75.93
71666;BME280;59503;53.486;10.196;2022-08-21T07:30:58;101630.06;;;18.45;74.68
71666;BME280;59503;53.486;10.196;2022-08-21T07:33:25;101624.53;;;18.74;72.77
71666;BME280;59503;53.486;10.196;2022-08-21T07:35:51;101622.19;;;18.76;70.50
71666;BME280;59503;53.486;10.196;2022-08-21T07:38:17;101626.09;;;18.96;70.09
71666;BME280;59503;53.486;10.196;2022-08-21T07:40:45;101622.47;;;19.27;64.72
71666;BME280;59503;53.486;10.196;2022-08-21T07:43:10;101621.94;;;19.67;66.78
71666;BME280;59503;53.486;10.196;2022-08-21T07:45:36;101620.03;;;20.22;65.30
71666;BME280;59503;53.486;10.196;2022-08-21T07:48:02;101623.88;;;20.35;62.45
71666;BME280;59503;53.486;10.196;2022-08-21T07:50:27;101613.44;;;20.53;60.59
71666;BME280;59503;53.486;10.196;2022-08-21T07:52:52;101614.69;;;20.89;59.82
71666;BME280;59503;53.486;10.196;2022-08-21T07:55:19;101617.75;;;20.98;59.66
71666;BME280;59503;53.486;10.196;2022-08-21T07:57:47;101610.94;;;21.44;58.28
71666;BME280;59503;53.486;10.196;2022-08-21T08:00:15;101608.34;;;21.60;56.41
71666;BME280;59503;53.486;10.196;2022-08-21T08:02:45;101614.25;;;21.62;57.30
71666;BME280;59503;53.486;10.196;2022-08-21T08:05:12;101613.25;;;21.79;57.37
71666;BME280;59503;53.486;10.196;2022-08-21T08:07:38;101608.06;;;21.81;54.90
71666;BME280;59503;53.486;10.196;2022-08-21T08:10:05;101606.09;;;22.08;55.82
71666;BME280;59503;53.486;10.196;2022-08-21T08:12:36;101606.88;;;22.58;54.93
71666;BME280;59503;53.486;10.196;2022-08-21T08:15:03;101601.41;;;22.97;51.99
71666;BME280;59503;53.486;10.196;2022-08-21T08:17:29;101608.28;;;23.09;50.62
71666;BME280;59503;53.486;10.196;2022-08-21T08:19:54;101598.38;;;23.31;50.14
71666;BME280;59503;53.486;10.196;2022-08-21T08:22:22;101608.84;;;22.81;51.75
71666;BME280;59503;53.486;10.196;2022-08-21T08:24:50;101595.84;;;22.97;51.63
71666;BME280;59503;53.486;10.196;2022-08-21T08:27:16;101601.69;;;23.62;50.34
71666;BME280;59503;53.486;10.196;2022-08-21T08:29:42;101588.44;;;24.21;50.14
71666;BME280;59503;53.486;10.196;2022-08-21T08:32:08;101590.50;;;24.17;48.20
71666;BME280;59503;53.486;10.196;2022-08-21T08:34:35;101586.13;;;24.64;48.17
71666;BME280;59503;53.486;10.196;2022-08-21T08:37:00;101561.84;;;25.09;48.08
71666;BME280;59503;53.486;10.196;2022-08-21T08:39:27;101589.41;;;24.75;47.27
71666;BME280;59503;53.486;10.196;2022-08-21T08:42:03;101576.94;;;24.35;47.97
71666;BME280;59503;53.486;10.196;2022-08-21T08:44:29;101591.47;;;24.87;47.86
71666;BME280;59503;53.486;10.196;2022-08-21T08:46:56;101580.97;;;25.07;46.79
71666;BME280;59503;53.486;10.196;2022-08-21T08:49:37;101586.34;;;25.27;45.65
71666;BME280;59503;53.486;10.196;2022-08-21T08:52:11;101583.28;;;24.96;49.08
71666;BME280;59503;53.486;10.196;2022-08-21T08:55:11;101590.06;;;24.95;46.27
71666;BME280;59503;53.486;10.196;2022-08-21T08:57:39;101586.06;;;24.96;47.58
71666;BME280;59503;53.486;10.196;2022-08-21T09:00:10;101584.59;;;24.92;47.92
71666;BME280;59503;53.486;10.196;2022-08-21T09:02:41;101580.91;;;24.66;47.87
71666;BME280;59503;53.486;10.196;2022-08-21T09:05:08;101580.56;;;24.48;48.29
71666;BME280;59503;53.486;10.196;2022-08-21T09:08:40;101566.69;;;24.32;49.60
71666;BME280;59503;53.486;10.196;2022-08-21T09:10:51;101568.78;;;24.44;49.58
71666;BME280;59503;53.486;10.196;2022-08-21T09:14:11;101578.78;;;24.86;48.40
71666;BME280;59503;53.486;10.196;2022-08-21T09:19:36;101575.69;;;26.51;45.45
71666;BME280;59503;53.486;10.196;2022-08-21T09:22:17;101571.44;;;26.93;41.42
71666;BME280;59503;53.486;10.196;2022-08-21T09:24:53;101555.97;;;27.44;40.47
71666;BME280;59503;53.486;10.196;2022-08-21T09:27:25;101562.22;;;27.57;40.73
71666;BME280;59503;53.486;10.196;2022-08-21T09:29:54;101553.16;;;27.84;40.38
71666;BME280;59503;53.486;10.196;2022-08-21T09:32:23;101555.56;;;27.94;40.79
71666;BME280;59503;53.486;10.196;2022-08-21T09:35:00;101554.34;;;28.04;40.31
71666;BME280;59503;53.486;10.196;2022-08-21T09:37:30;101539.59;;;28.13;39.47
71666;BME280;59503;53.486;10.196;2022-08-21T09:39:57;101540.84;;;28.21;39.93
71666;BME280;59503;53.486;10.196;2022-08-21T09:42:31;101539.03;;;28.27;38.78
71666;BME280;59503;53.486;10.196;2022-08-21T09:45:09;101540.16;;;28.57;38.03
71666;BME280;59503;53.486;10.196;2022-08-21T09:47:35;101539.34;;;28.38;39.22
71666;BME280;59503;53.486;10.196;2022-08-21T09:50:16;101538.59;;;28.56;39.73
71666;BME280;59503;53.486;10.196;2022-08-21T09:52:48;101541.19;;;28.14;39.20
71666;BME280;59503;53.486;10.196;2022-08-21T09:55:22;101536.34;;;28.15;38.36
71666;BME280;59503;53.486;10.196;2022-08-21T09:58:07;101541.44;;;27.06;39.28
71666;BME280;59503;53.486;10.196;2022-08-21T10:00:34;101535.00;;;27.18;41.10
71666;BME280;59503;53.486;10.196;2022-08-21T10:03:14;101539.38;;;26.76;43.14
71666;BME280;59503;53.486;10.196;2022-08-21T10:05:49;101538.97;;;27.08;40.94
71666;BME280;59503;53.486;10.196;2022-08-21T10:08:19;101531.22;;;27.12;41.28
71666;BME280;59503;53.486;10.196;2022-08-21T10:10:45;101532.59;;;26.64;42.88
71666;BME280;59503;53.486;10.196;2022-08-21T10:18:20;101530.38;;;26.13;42.68
71666;BME280;59503;53.486;10.196;2022-08-21T10:23:43;101525.47;;;26.17;42.98
71666;BME280;59503;53.486;10.196;2022-08-21T10:26:31;101536.88;;;25.85;43.81
71666;BME280;59503;53.486;10.196;2022-08-21T10:32:36;101523.97;;;25.91;43.95
71666;BME280;59503;53.486;10.196;2022-08-21T10:35:06;101533.75;;;25.83;42.57
71666;BME280;59503;53.486;10.196;2022-08-21T10:43:31;101530.59;;;26.31;42.48
71666;BME280;59503;53.486;10.196;2022-08-21T10:46:58;101527.13;;;26.27;42.68
71666;BME280;59503;53.486;10.196;2022-08-21T10:52:02;101525.94;;;26.03;42.34
71666;BME280;59503;53.486;10.196;2022-08-21T10:54:52;101526.97;;;25.58;42.86
71666;BME280;59503;53.486;10.196;2022-08-21T10:57:40;101529.31;;;25.47;43.39
71666;BME280;59503;53.486;10.196;2022-08-21T11:00:12;101527.53;;;25.00;45.24
71666;BME280;59503;53.486;10.196;2022-08-21T11:02:42;101531.34;;;24.77;47.54
71666;BME280;59503;53.486;10.196;2022-08-21T11:05:17;101520.22;;;24.77;46.29
71666;BME280;59503;53.486;10.196;2022-08-21T11:07:53;101519.03;;;24.62;46.30
71666;BME280;59503;53.486;10.196;2022-08-21T11:13:45;101529.47;;;24.74;44.86
71666;BME280;59503;53.486;10.196;2022-08-21T11:27:45;101532.34;;;25.12;42.31
71666;BME280;59503;53.486;10.196;2022-08-21T11:30:13;101537.03;;;25.27;42.37
71666;BME280;59503;53.486;10.196;2022-08-21T11:32:55;101537.72;;;25.31;42.90
71666;BME280;59503;53.486;10.196;2022-08-21T11:38:27;101531.66;;;25.61;42.41
71666;BME280;59503;53.486;10.196;2022-08-21T11:41:08;101540.34;;;25.76;41.31
71666;BME280;59503;53.486;10.196;2022-08-21T11:43:45;101538.44;;;25.86;40.10
71666;BME280;59503;53.486;10.196;2022-08-21T11:48:59;101531.22;;;25.76;40.69
71666;BME280;59503;53.486;10.196;2022-08-21T11:51:39;101527.84;;;25.93;39.32
71666;BME280;59503;53.486;10.196;2022-08-21T11:57:04;101529.88;;;25.80;40.63
71666;BME280;59503;53.486;10.196;2022-08-21T12:02:20;101527.06;;;25.93;38.43
71666;BME280;59503;53.486;10.196;2022-08-21T12:05:00;101521.25;;;26.00;38.57
71666;BME280;59503;53.486;10.196;2022-08-21T12:07:37;101521.88;;;26.29;40.41
71666;BME280;59503;53.486;10.196;2022-08-21T12:10:07;101518.69;;;26.52;37.43
71666;BME280;59503;53.486;10.196;2022-08-21T12:12:38;101512.84;;;26.59;37.64
71666;BME280;59503;53.486;10.196;2022-08-21T12:15:17;101513.13;;;26.73;36.23
71666;BME280;59503;53.486;10.196;2022-08-21T12:18:04;101519.47;;;26.52;37.78
71666;BME280;59503;53.486;10.196;2022-08-21T12:25:39;101517.28;;;25.63;38.71
71666;BME280;59503;53.486;10.196;2022-08-21T12:28:08;101527.06;;;25.67;39.93
71666;BME280;59503;53.486;10.196;2022-08-21T12:30:38;101518.03;;;25.89;37.99
71666;BME280;59503;53.486;10.196;2022-08-21T12:33:31;101513.56;;;25.91;38.60
71666;BME280;59503;53.486;10.196;2022-08-21T12:41:17;101517.69;;;25.99;37.93
71666;BME280;59503;53.486;10.196;2022-08-21T12:43:52;101514.22;;;26.08;39.17
71666;BME280;59503;53.486;10.196;2022-08-21T12:46:32;101519.09;;;26.29;37.91
71666;BME280;59503;53.486;10.196;2022-08-21T12:49:30;101520.56;;;26.55;38.32
71666;BME280;59503;53.486;10.196;2022-08-21T12:52:23;101514.22;;;27.19;37.50
71666;BME280;59503;53.486;10.196;2022-08-21T12:54:48;101505.97;;;27.86;35.12
71666;BME280;59503;53.486;10.196;2022-08-21T12:57:26;101520.22;;;28.37;35.39
71666;BME280;59503;53.486;10.196;2022-08-21T12:59:54;101512.28;;;28.35;35.03
71666;BME280;59503;53.486;10.196;2022-08-21T13:02:32;101517.00;;;28.74;34.73
71666;BME280;59503;53.486;10.196;2022-08-21T13:05:03;101505.31;;;28.49;33.43
71666;BME280;59503;53.486;10.196;2022-08-21T13:07:33;101514.66;;;28.55;34.37
71666;BME280;59503;53.486;10.196;2022-08-21T13:10:35;101509.22;;;28.51;35.19
71666;BME280;59503;53.486;10.196;2022-08-21T13:13:05;101503.72;;;28.12;34.09
71666;BME280;59503;53.486;10.196;2022-08-21T13:15:35;101511.31;;;27.53;34.96
71666;BME280;59503;53.486;10.196;2022-08-21T13:18:02;101507.50;;;27.78;35.41
71666;BME280;59503;53.486;10.196;2022-08-21T13:20:36;101507.50;;;27.78;34.62
71666;BME280;59503;53.486;10.196;2022-08-21T13:23:19;101500.19;;;27.71;34.49
71666;BME280;59503;53.486;10.196;2022-08-21T13:25:45;101506.56;;;27.32;35.61
71666;BME280;59503;53.486;10.196;2022-08-21T13:28:12;101498.44;;;28.04;35.76
71666;BME280;59503;53.486;10.196;2022-08-21T13:30:45;101496.25;;;27.90;33.94
71666;BME280;59503;53.486;10.196;2022-08-21T13:33:14;101496.19;;;27.81;34.42
71666;BME280;59503;53.486;10.196;2022-08-21T13:38:25;101488.00;;;26.52;36.57
71666;BME280;59503;53.486;10.196;2022-08-21T13:43:27;101488.00;;;26.95;36.34
71666;BME280;59503;53.486;10.196;2022-08-21T13:45:55;101493.63;;;27.56;35.24
71666;BME280;59503;53.486;10.196;2022-08-21T13:48:23;101495.81;;;28.28;34.23
71666;BME280;59503;53.486;10.196;2022-08-21T13:50:50;101498.72;;;29.06;33.51